KENL/ENL METAR and TAF weather

Enter ICAO airport designator
Station Type Date Time Source
KENL METAR 2019/07/18 11:15 UTC NOAA

KENL 181115Z AUTO 00000KT 10SM CLR 23/22 A2997 RMK AO2 T02260215


Station Type Date Time Source
KENL Decoded METAR 2019/07/18 11:15 UTC NOAA

Centralia, Centralia Municipal Airport, IL, United States (KENL) 38-30-53N 089-05-32W
Jul 18, 2019 - 07:15 AM EDT / 2019.07.18 1115 UTC
Wind: Calm:0
Visibility: 10 mile(s):0
Sky conditions: clear
Temperature: 72.7 F (22.6 C)
Dew Point: 70.7 F (21.5 C)
Relative Humidity: 93%
Pressure (altimeter): 29.97 in. Hg (1014 hPa)
ob: KENL 181115Z AUTO 00000KT 10SM CLR 23/22 A2997 RMK AO2 T02260215
cycle: 11

Station Type Date Time Source
KENL TAF UTC NOAA

Error!

Example: see airport list